Архив погоды в Воронеже

Метеограмма Воронеж
Понедельник, 25 Июня
Время местн. Темп Ветер Видим Явления Облачность нижн/средн/верх Атм. давл. Влжн Точка росы ВНГО R Сост. почвы Tg s
Напр Скр Прв ур.ст ур.м изм
03:00 +12.4° З,С-З 3 - 10 км - переменная облачность 750 764 +0.9 86% +10.1° более 2.5 км - - - -
00:00 +14.6° З 3 - 10 км облака рассеиваются {ливневые осадки} переменная облачность 749 763 +1.3 86% +12.2° более 2.5 км - - - -
Воскресенье, 24 Июня
Время местн. Темп Ветер Видим Явления Облачность нижн/средн/верх Атм. давл. Влжн Точка росы ВНГО R Сост. почвы Tg s
Напр Скр Прв ур.ст ур.м изм
21:00 +15.4° З 4 10 10 км слабый ливневый дождь {гроза} облачно 748 761 +2.4 87% +13.3° 600 м - - - -
18:00 +17.6° З,С-З 6 10 10 км слабый ливневый дождь {гроза} облачно 746 759 +2.3 91% +16.1° 600 м 8 - - -
15:00 +27.4° З 4 - 10 км - преимущественно облачно 744 756 +0.5 36% +10.9° более 2.5 км - - - -
12:00 +29° Ю,Ю-З 1 - 10 км - облачно с прояснениями 743 756 +0.2 30% +9.8° более 2.5 км - - - -
09:00 +25.2° Ю-В 1 - 10 км - облачно с прояснениями 743 756 -0.2 32% +7.5° более 2.5 км - - - -
06:00 +21.4° Ю-В 2 - 10 км - переменная облачность 743 756 0 43% +8.3° более 2.5 км 0 - - -
03:00 +22.3° Ю-В 3 - 10 км - переменная облачность 743 756 -0.1 44% +9.3° более 2.5 км - - - -
00:00 +22.6° штиль 0 - 10 км - облачно с прояснениями 743 756 -0.3 48% +10.9° более 2.5 км - - - -
Суббота, 23 Июня
Время местн. Темп Ветер Видим Явления Облачность нижн/средн/верх Атм. давл. Влжн Точка росы ВНГО R Сост. почвы Tg s
Напр Скр Прв ур.ст ур.м изм
21:00 +25.5° В 1 - 10 км - облачно с прояснениями 744 756 -0.2 39% +10.7° более 2.5 км - - - -
18:00 +32.5° Ю-В 3 - 10 км - облачно с прояснениями 744 756 -1 21% +7.2° более 2.5 км - - - -
15:00 +33° Ю 4 - 10 км - незначительная облачность 745 757 -0.9 19% +6° более 2.5 км - - - -
12:00 +32.2° Ю,Ю-В 6 - 10 км - ясно 746 758 -0.7 19% +5.7° более 2.5 км - Влажная (без луж) - -
09:00 +27.2° Ю 4 - 10 км - незначительная облачность 746 759 -0.1 34% +9.8° более 2.5 км - - - -
06:00 +19.2° Ю-В 1 - 10 км - ясно 746 759 +0.2 70% +13.6° более 2.5 км - - - -
03:00 +18.4° В,С-В 1 - 10 км - ясно 746 759 +0.2 86% +16.1° более 2.5 км - - - -
00:00 +20.5° штиль 0 - 10 км - ясно 746 759 +0.2 65% +13.6° более 2.5 км - - - -
Пятница, 22 Июня
Время местн. Темп Ветер Видим Явления Облачность нижн/средн/верх Атм. давл. Влжн Точка росы ВНГО R Сост. почвы Tg s
Напр Скр Прв ур.ст ур.м изм
21:00 +25.4° штиль 0 - 10 км - ясно 746 758 +0.2 48% +13.5° более 2.5 км - - - -
18:00 +31.3° Ю-З 1 - 10 км - ясно 746 758 -0.8 31% +12° более 2.5 км 0 - - -
15:00 +30.6° Ю 2 - 10 км - ясно 746 759 -1.1 33% +12.3° более 2.5 км - - - -
12:00 +29° Ю 3 - 10 км - переменная облачность 747 760 -0.4 36% +12.3° 1.5 км - - - -
09:00 +25.8° Ю 3 - 10 км - ясно 748 760 -0.2 42% +11.9° более 2.5 км - - - -
06:00 +17.8° штиль 0 - 10 км - ясно 748 761 +0.1 83% +14.9° более 2.5 км - - - -
03:00 +15° штиль 0 - 10 км - ясно 748 761 +0.2 87% +12.8° более 2.5 км - - - -
00:00 +17.1° штиль 0 - 10 км - ясно 748 761 +0.2 71% +11.8° более 2.5 км - - - -